createdAt,value
2023-05-23T00:01:07.305Z,100524.88
2023-05-23T00:03:34.820Z,100524.06
2023-05-23T00:06:02.441Z,100519.88
2023-05-23T00:08:29.334Z,100525.44
2023-05-23T00:10:56.104Z,100525.06
2023-05-23T00:13:23.025Z,100530.94
2023-05-23T00:15:49.829Z,100533.00
2023-05-23T00:18:16.743Z,100530.44
2023-05-23T00:20:43.908Z,100534.88
2023-05-23T00:23:14.919Z,100528.97
2023-05-23T00:25:42.499Z,100526.84
2023-05-23T00:28:09.354Z,100534.50
2023-05-23T00:30:36.232Z,100531.94
2023-05-23T00:33:03.829Z,100526.50
2023-05-23T00:35:30.714Z,100531.31
2023-05-23T00:37:57.483Z,100532.91
2023-05-23T00:40:24.981Z,100533.03
2023-05-23T00:42:51.755Z,100531.75
2023-05-23T00:45:18.617Z,100536.38
2023-05-23T00:47:47.838Z,100533.38
2023-05-23T00:50:15.942Z,100532.38
2023-05-23T00:52:45.154Z,100533.31
2023-05-23T00:55:15.856Z,100526.28
2023-05-23T00:57:44.453Z,100535.06
2023-05-23T01:00:15.649Z,100528.63
2023-05-23T01:02:51.389Z,100530.84
2023-05-23T01:05:18.679Z,100533.69
2023-05-23T01:07:47.280Z,100534.31
2023-05-23T01:10:15.729Z,100537.81
2023-05-23T01:12:58.525Z,100541.97
2023-05-23T01:15:44.060Z,100545.78
2023-05-23T01:18:17.963Z,100544.19
2023-05-23T01:20:54.588Z,100544.19
2023-05-23T01:24:08.921Z,100546.41
2023-05-23T01:26:54.039Z,100545.41
2023-05-23T01:29:32.364Z,100547.63
2023-05-23T01:32:01.217Z,100539.59
2023-05-23T01:34:29.277Z,100541.78
2023-05-23T01:36:58.864Z,100540.97
2023-05-23T01:39:26.383Z,100549.44
2023-05-23T01:41:54.889Z,100547.34
2023-05-23T01:44:22.561Z,100551.78
2023-05-23T01:46:49.416Z,100556.69
2023-05-23T01:49:17.983Z,100556.69
2023-05-23T01:51:46.045Z,100560.22
2023-05-23T01:54:14.532Z,100562.13
2023-05-23T01:56:43.150Z,100561.34
2023-05-23T01:59:10.407Z,100561.13
2023-05-23T02:01:38.819Z,100568.78
2023-05-23T02:04:05.957Z,100563.34
2023-05-23T02:06:33.212Z,100560.94
2023-05-23T02:09:00.220Z,100560.13
2023-05-23T02:11:27.219Z,100569.69
2023-05-23T02:13:54.087Z,100570.00
2023-05-23T02:16:21.750Z,100575.91
2023-05-23T02:18:49.402Z,100574.81
2023-05-23T02:21:16.529Z,100574.50
2023-05-23T02:23:43.546Z,100583.47
2023-05-23T02:26:10.416Z,100581.97
2023-05-23T02:28:37.381Z,100579.84
2023-05-23T02:31:04.435Z,100582.06
2023-05-23T02:33:32.583Z,100594.03
2023-05-23T02:36:01.606Z,100593.53
2023-05-23T02:38:29.569Z,100592.53
2023-05-23T02:40:57.803Z,100604.16
2023-05-23T02:43:24.573Z,100591.22
2023-05-23T02:45:51.903Z,100596.94
2023-05-23T02:48:18.972Z,100607.19
2023-05-23T02:50:45.905Z,100604.97
2023-05-23T02:53:12.730Z,100610.09
2023-05-23T02:55:39.784Z,100611.38
2023-05-23T02:58:07.141Z,100609.50
2023-05-23T03:00:34.214Z,100605.78
2023-05-23T03:03:01.838Z,100605.59
2023-05-23T03:05:28.718Z,100609.88
2023-05-23T03:07:55.617Z,100612.00
2023-05-23T03:10:22.470Z,100615.81
2023-05-23T03:12:49.287Z,100611.31
2023-05-23T03:15:17.220Z,100602.78
2023-05-23T03:17:44.848Z,100607.22
2023-05-23T03:20:12.117Z,100616.75
2023-05-23T03:22:39.469Z,100607.50
2023-05-23T03:25:06.867Z,100610.22
2023-05-23T03:27:33.626Z,100609.91
2023-05-23T03:30:01.224Z,100612.41
2023-05-23T03:32:28.201Z,100612.03
2023-05-23T03:34:55.021Z,100618.16
2023-05-23T03:37:22.027Z,100618.25
2023-05-23T03:39:48.801Z,100622.66
2023-05-23T03:42:15.720Z,100627.56
2023-05-23T03:44:42.524Z,100628.97
2023-05-23T03:47:09.495Z,100630.88
2023-05-23T03:49:38.939Z,100635.28
2023-05-23T03:52:05.818Z,100641.28
2023-05-23T03:54:32.568Z,100639.69
2023-05-23T03:56:59.328Z,100643.50
2023-05-23T03:59:26.472Z,100635.88
2023-05-23T04:01:53.499Z,100632.28
2023-05-23T04:04:21.124Z,100640.09
2023-05-23T04:06:49.213Z,100641.50
2023-05-23T04:09:16.173Z,100649.44
2023-05-23T04:11:45.253Z,100647.91
2023-05-23T04:14:12.504Z,100648.72
2023-05-23T04:16:42.003Z,100657.34
2023-05-23T04:19:09.150Z,100657.72
2023-05-23T04:21:36.239Z,100674.56
2023-05-23T04:24:15.091Z,100659.09
2023-05-23T04:26:43.509Z,100668.34
2023-05-23T04:29:12.307Z,100671.34
2023-05-23T04:31:39.488Z,100666.53
2023-05-23T04:34:08.266Z,100665.13
2023-05-23T04:36:38.735Z,100675.47
2023-05-23T04:39:08.030Z,100670.94
2023-05-23T04:41:40.270Z,100677.75
2023-05-23T04:44:30.342Z,100673.94
2023-05-23T04:47:21.250Z,100677.44
2023-05-23T04:50:08.672Z,100683.97
2023-05-23T04:52:35.757Z,100690.41
2023-05-23T04:55:02.884Z,100695.22
2023-05-23T04:57:29.747Z,100695.44
2023-05-23T04:59:57.476Z,100693.47
2023-05-23T05:02:27.122Z,100703.69
2023-05-23T05:04:54.086Z,100702.53
2023-05-23T05:07:21.033Z,100706.75
2023-05-23T05:09:48.042Z,100702.34
2023-05-23T05:12:14.833Z,100702.56
2023-05-23T05:14:41.878Z,100705.78
2023-05-23T05:17:09.467Z,100704.16
2023-05-23T05:19:46.470Z,100706.38
2023-05-23T05:22:15.225Z,100713.59
2023-05-23T05:24:42.559Z,100711.63
2023-05-23T05:27:11.653Z,100711.63
2023-05-23T05:29:38.423Z,100715.63
2023-05-23T05:32:09.012Z,100723.59
2023-05-23T05:34:37.904Z,100723.09
2023-05-23T05:37:05.282Z,100730.75
2023-05-23T05:39:32.320Z,100730.13
2023-05-23T05:42:01.307Z,100740.81
2023-05-23T05:44:28.195Z,100740.09
2023-05-23T05:46:55.783Z,100741.59
2023-05-23T05:49:22.766Z,100736.34
2023-05-23T05:51:50.268Z,100738.34
2023-05-23T05:54:19.184Z,100743.75
2023-05-23T05:56:47.728Z,100748.28
2023-05-23T05:59:15.845Z,100746.84
2023-05-23T06:01:42.751Z,100756.97
2023-05-23T06:04:11.426Z,100756.50
2023-05-23T06:06:38.422Z,100754.75
2023-05-23T06:09:05.533Z,100759.38
2023-05-23T06:11:32.643Z,100764.22
2023-05-23T06:14:00.046Z,100763.72
2023-05-23T06:16:27.145Z,100761.97
2023-05-23T06:18:55.145Z,100770.75
2023-05-23T06:21:23.585Z,100772.38
2023-05-23T06:23:52.375Z,100772.66
2023-05-23T06:26:19.260Z,100775.06
2023-05-23T06:28:46.385Z,100782.53
2023-05-23T06:31:13.309Z,100781.75
2023-05-23T06:33:40.348Z,100779.38
2023-05-23T06:36:07.531Z,100788.25
2023-05-23T06:38:34.227Z,100793.00
2023-05-23T06:41:03.819Z,100798.72
2023-05-23T06:43:31.253Z,100798.66
2023-05-23T06:46:12.900Z,100795.56
2023-05-23T06:48:39.828Z,100799.06
2023-05-23T06:51:06.772Z,100817.41
2023-05-23T06:53:34.386Z,100811.31
2023-05-23T06:56:01.592Z,100817.16
2023-05-23T06:58:30.500Z,100823.19
2023-05-23T07:01:00.911Z,100816.47
2023-05-23T07:03:31.713Z,100819.81
2023-05-23T07:06:05.359Z,100822.84
2023-05-23T07:08:32.389Z,100825.91
2023-05-23T07:11:00.669Z,100831.69
2023-05-23T07:13:38.526Z,100829.69
2023-05-23T07:16:06.342Z,100834.00
2023-05-23T07:18:38.431Z,100838.59
2023-05-23T07:21:05.837Z,100839.81
2023-05-23T07:23:34.714Z,100844.34
2023-05-23T07:26:03.318Z,100838.31
2023-05-23T07:28:51.407Z,100842.25
2023-05-23T07:31:19.012Z,100833.81
2023-05-23T07:33:46.599Z,100836.13
2023-05-23T07:36:20.104Z,100839.09
2023-05-23T07:38:49.810Z,100830.25
2023-05-23T07:41:17.052Z,100831.38
2023-05-23T07:43:44.081Z,100835.47
2023-05-23T07:46:13.382Z,100833.81
2023-05-23T07:48:40.707Z,100830.06
2023-05-23T07:51:07.736Z,100837.94
2023-05-23T07:53:35.159Z,100825.06
2023-05-23T07:56:03.831Z,100830.78
2023-05-23T07:58:36.052Z,100830.19
2023-05-23T08:01:03.702Z,100842.16
2023-05-23T08:03:49.167Z,100844.53
2023-05-23T08:06:22.680Z,100842.75
2023-05-23T08:08:49.755Z,100843.88
2023-05-23T08:11:17.115Z,100842.09
2023-05-23T08:13:49.283Z,100856.41
2023-05-23T08:16:38.884Z,100845.97
2023-05-23T08:19:17.373Z,100849.81
2023-05-23T08:21:44.813Z,100846.63
2023-05-23T08:24:15.146Z,100840.97
2023-05-23T08:26:44.517Z,100839.66
2023-05-23T08:29:13.929Z,100838.88
2023-05-23T08:31:42.430Z,100839.38
2023-05-23T08:34:11.634Z,100844.22
2023-05-23T08:36:40.083Z,100849.00
2023-05-23T08:39:11.762Z,100856.06
2023-05-23T08:42:07.627Z,100846.47
2023-05-23T08:44:34.912Z,100841.41
2023-05-23T08:47:07.831Z,100847.97
2023-05-23T08:49:59.790Z,100839.78
2023-05-23T08:52:30.176Z,100840.03
2023-05-23T08:55:00.876Z,100833.16
2023-05-23T08:57:30.538Z,100827.25
2023-05-23T09:00:11.161Z,100826.13
2023-05-23T09:02:39.198Z,100827.19
2023-05-23T09:05:20.850Z,100839.72
2023-05-23T09:07:49.418Z,100830.16
2023-05-23T09:10:20.384Z,100828.38
2023-05-23T09:12:47.520Z,100816.66
2023-05-23T09:15:14.854Z,100809.75
2023-05-23T09:17:41.899Z,100810.09
2023-05-23T09:20:15.246Z,100818.63
2023-05-23T09:22:49.441Z,100823.75
2023-05-23T09:25:18.006Z,100823.94
2023-05-23T09:27:48.071Z,100819.72
2023-05-23T09:30:16.011Z,100828.13
2023-05-23T09:32:44.757Z,100824.88
2023-05-23T09:35:16.032Z,100830.06
2023-05-23T09:37:47.405Z,100827.97
2023-05-23T09:40:15.388Z,100824.53
2023-05-23T09:42:52.992Z,100815.53
2023-05-23T09:45:19.971Z,100824.41
2023-05-23T09:47:53.895Z,100832.38
2023-05-23T09:50:21.762Z,100833.56
2023-05-23T09:52:49.585Z,100830.66
2023-05-23T09:55:16.684Z,100822.53
2023-05-23T09:57:44.330Z,100825.59
2023-05-23T10:00:13.937Z,100835.25
2023-05-23T10:03:10.765Z,100827.69
2023-05-23T10:05:47.755Z,100839.41
2023-05-23T10:08:19.188Z,100843.06
2023-05-23T10:11:14.735Z,100848.56
2023-05-23T10:13:44.922Z,100853.63
2023-05-23T10:16:14.704Z,100859.84
2023-05-23T10:18:45.786Z,100862.28
2023-05-23T10:21:15.774Z,100862.34
2023-05-23T10:23:47.111Z,100865.00
2023-05-23T10:26:14.153Z,100864.00
2023-05-23T10:28:42.270Z,100865.06
2023-05-23T10:31:10.641Z,100865.41
2023-05-23T10:33:47.651Z,100869.44
2023-05-23T10:36:45.194Z,100861.44
2023-05-23T10:39:28.350Z,100868.56
2023-05-23T10:42:08.980Z,100854.81
2023-05-23T10:44:36.848Z,100853.38
2023-05-23T10:47:04.710Z,100856.72
2023-05-23T10:49:44.514Z,100855.88
2023-05-23T10:52:14.127Z,100849.97
2023-05-23T10:54:46.839Z,100859.22
2023-05-23T10:57:19.480Z,100861.56
2023-05-23T10:59:47.514Z,100860.31
2023-05-23T11:02:19.523Z,100857.41
2023-05-23T11:04:49.023Z,100862.16
2023-05-23T11:07:32.804Z,100862.94
2023-05-23T11:10:11.300Z,100861.84
2023-05-23T11:12:40.979Z,100866.94
2023-05-23T11:15:28.135Z,100861.47
2023-05-23T11:17:57.536Z,100869.34
2023-05-23T11:20:28.659Z,100869.78
2023-05-23T11:23:00.725Z,100872.19
2023-05-23T11:25:57.224Z,100870.34
2023-05-23T11:28:24.533Z,100874.00
2023-05-23T11:30:51.535Z,100875.22
2023-05-23T11:33:19.133Z,100874.91
2023-05-23T11:35:48.775Z,100857.63
2023-05-23T11:38:17.035Z,100858.91
2023-05-23T11:40:46.431Z,100854.22
2023-05-23T11:43:16.848Z,100859.09
2023-05-23T11:45:44.176Z,100865.44
2023-05-23T11:48:16.620Z,100855.06
2023-05-23T11:50:52.321Z,100874.91
2023-05-23T11:53:21.915Z,100873.28
2023-05-23T11:55:55.828Z,100871.19
2023-05-23T11:58:26.149Z,100876.53
2023-05-23T12:00:55.345Z,100867.06
2023-05-23T12:03:22.786Z,100857.81
2023-05-23T12:05:49.808Z,100869.44
2023-05-23T12:08:17.866Z,100861.59
2023-05-23T12:10:57.053Z,100854.13
2023-05-23T12:13:29.398Z,100853.59
2023-05-23T12:16:00.765Z,100861.25
2023-05-23T12:18:29.853Z,100863.09
2023-05-23T12:21:01.358Z,100861.38
2023-05-23T12:23:28.756Z,100863.00
2023-05-23T12:25:57.102Z,100861.16
2023-05-23T12:28:37.464Z,100860.06
2023-05-23T12:31:22.393Z,100862.94
2023-05-23T12:33:50.210Z,100863.97
2023-05-23T12:36:25.173Z,100861.28
2023-05-23T12:38:52.254Z,100858.19
2023-05-23T12:41:20.749Z,100858.91
2023-05-23T12:43:55.474Z,100861.63
2023-05-23T12:46:25.168Z,100865.81
2023-05-23T12:48:53.255Z,100857.91
2023-05-23T12:51:21.469Z,100856.75
2023-05-23T12:53:50.096Z,100854.91
2023-05-23T12:56:21.046Z,100854.91
2023-05-23T12:58:48.486Z,100855.25
2023-05-23T13:01:15.341Z,100853.19
2023-05-23T13:03:45.070Z,100850.63
2023-05-23T13:06:14.983Z,100847.84
2023-05-23T13:08:42.756Z,100846.25
2023-05-23T13:11:09.654Z,100842.94
2023-05-23T13:13:39.133Z,100853.38
2023-05-23T13:16:07.184Z,100845.84
2023-05-23T13:18:34.001Z,100853.13
2023-05-23T13:21:00.925Z,100850.38
2023-05-23T13:23:28.614Z,100868.63
2023-05-23T13:25:58.073Z,100853.19
2023-05-23T13:28:25.971Z,100862.75
2023-05-23T13:30:53.025Z,100860.59
2023-05-23T13:33:25.877Z,100851.31
2023-05-23T13:35:54.653Z,100855.66
2023-05-23T13:38:22.742Z,100851.00
2023-05-23T13:40:51.908Z,100854.22
2023-05-23T13:43:19.047Z,100851.50
2023-05-23T13:45:47.358Z,100849.94
2023-05-23T13:48:14.554Z,100850.88
2023-05-23T13:50:43.289Z,100855.47
2023-05-23T13:53:15.567Z,100855.06
2023-05-23T13:55:43.846Z,100847.34
2023-05-23T13:58:13.866Z,100859.22
2023-05-23T14:00:41.500Z,100854.88
2023-05-23T14:03:11.520Z,100855.25
2023-05-23T14:05:39.378Z,100872.53
2023-05-23T14:08:07.067Z,100859.94
2023-05-23T14:10:34.149Z,100858.97
2023-05-23T14:13:01.532Z,100851.25
2023-05-23T14:15:28.631Z,100850.75
2023-05-23T14:17:57.341Z,100842.84
2023-05-23T14:20:25.123Z,100846.94
2023-05-23T14:22:55.285Z,100854.25
2023-05-23T14:25:22.708Z,100859.75
2023-05-23T14:27:50.029Z,100855.00
2023-05-23T14:30:17.378Z,100852.47
2023-05-23T14:32:44.707Z,100856.53
2023-05-23T14:35:14.525Z,100861.25
2023-05-23T14:37:44.769Z,100856.91
2023-05-23T14:40:13.451Z,100864.56
2023-05-23T14:42:40.721Z,100868.25
2023-05-23T14:45:07.922Z,100862.91
2023-05-23T14:47:35.858Z,100869.69
2023-05-23T14:50:03.600Z,100868.03
2023-05-23T14:52:31.030Z,100860.94
2023-05-23T14:54:58.497Z,100865.00
2023-05-23T14:57:25.540Z,100868.28
2023-05-23T14:59:53.063Z,100871.53
2023-05-23T15:02:20.918Z,100874.91
2023-05-23T15:04:48.984Z,100878.75
2023-05-23T15:07:19.688Z,100881.06
2023-05-23T15:09:48.194Z,100880.19
2023-05-23T15:12:18.065Z,100870.78
2023-05-23T15:14:48.806Z,100875.09
2023-05-23T15:17:20.390Z,100871.53
2023-05-23T15:19:48.124Z,100869.81
2023-05-23T15:22:33.734Z,100881.91
2023-05-23T15:25:08.814Z,100880.44
2023-05-23T15:27:37.756Z,100875.63
2023-05-23T15:30:05.552Z,100871.38
2023-05-23T15:32:33.436Z,100877.13
2023-05-23T15:35:00.653Z,100879.69
2023-05-23T15:37:27.749Z,100887.81
2023-05-23T15:39:57.721Z,100885.63
2023-05-23T15:42:25.712Z,100877.09
2023-05-23T15:44:53.064Z,100886.75
2023-05-23T15:47:20.938Z,100886.16
2023-05-23T15:49:48.105Z,100890.25
2023-05-23T15:52:15.466Z,100884.16
2023-05-23T15:54:42.290Z,100887.47
2023-05-23T15:57:11.881Z,100887.38
2023-05-23T15:59:39.604Z,100892.50
2023-05-23T16:02:06.927Z,100890.88
2023-05-23T16:04:36.139Z,100886.41
2023-05-23T16:07:04.134Z,100895.84
2023-05-23T16:09:31.713Z,100895.56
2023-05-23T16:11:59.128Z,100896.03
2023-05-23T16:14:26.138Z,100899.53
2023-05-23T16:16:53.076Z,100898.41
2023-05-23T16:19:20.291Z,100901.78
2023-05-23T16:24:39.979Z,100901.13
2023-05-23T16:27:33.253Z,100905.50
2023-05-23T16:30:00.511Z,100902.75
2023-05-23T16:32:35.569Z,100905.31
2023-05-23T16:35:03.742Z,100908.84
2023-05-23T16:37:34.757Z,100912.22
2023-05-23T16:40:02.691Z,100909.97
2023-05-23T16:42:33.561Z,100907.38
2023-05-23T16:45:05.557Z,100901.63
2023-05-23T16:47:34.131Z,100900.50
2023-05-23T16:50:14.007Z,100906.44
2023-05-23T16:52:41.641Z,100904.66
2023-05-23T16:55:11.083Z,100905.16
2023-05-23T16:57:40.421Z,100900.03
2023-05-23T17:00:14.404Z,100900.28
2023-05-23T17:02:55.719Z,100897.41
2023-05-23T17:05:22.908Z,100901.88
2023-05-23T17:07:50.461Z,100899.63
2023-05-23T17:10:20.345Z,100895.78
2023-05-23T17:12:47.617Z,100898.00
2023-05-23T17:15:17.655Z,100897.53
2023-05-23T17:17:54.032Z,100904.47
2023-05-23T17:20:25.199Z,100906.09
2023-05-23T17:22:59.911Z,100902.88
2023-05-23T17:25:27.070Z,100906.72
2023-05-23T17:27:55.514Z,100896.44
2023-05-23T17:30:23.652Z,100894.03
2023-05-23T17:35:49.936Z,100900.03
2023-05-23T17:38:29.127Z,100908.38
2023-05-23T17:41:06.394Z,100905.91
2023-05-23T17:43:35.574Z,100910.28
2023-05-23T17:46:02.806Z,100908.09
2023-05-23T17:48:45.578Z,100908.19
2023-05-23T17:51:15.357Z,100922.75
2023-05-23T17:53:57.249Z,100916.91
2023-05-23T17:56:28.496Z,100917.34
2023-05-23T17:58:58.233Z,100918.59
2023-05-23T18:01:27.845Z,100923.03
2023-05-23T18:03:55.636Z,100927.09
2023-05-23T18:06:24.206Z,100923.88
2023-05-23T18:09:03.501Z,100928.31
2023-05-23T18:11:31.330Z,100939.38
2023-05-23T18:14:00.851Z,100949.25
2023-05-23T18:16:30.641Z,100941.63
2023-05-23T18:19:02.063Z,100945.34
2023-05-23T18:21:38.654Z,100942.94
2023-05-23T18:24:06.751Z,100942.94
2023-05-23T18:26:34.185Z,100948.00
2023-05-23T18:29:04.709Z,100956.41
2023-05-23T18:31:35.868Z,100950.91
2023-05-23T18:34:03.898Z,100962.19
2023-05-23T18:36:31.601Z,100964.00
2023-05-23T18:38:58.718Z,100972.09
2023-05-23T18:41:28.462Z,100969.50
2023-05-23T18:43:55.513Z,100971.50
2023-05-23T18:46:24.328Z,100969.69
2023-05-23T18:48:53.019Z,100975.13
2023-05-23T18:51:19.854Z,100979.56
2023-05-23T18:53:46.702Z,100980.53
2023-05-23T18:56:13.524Z,100977.50
2023-05-23T18:58:40.779Z,100990.19
2023-05-23T19:01:08.323Z,100989.47
2023-05-23T19:03:37.206Z,100993.31
2023-05-23T19:06:06.056Z,100994.41
2023-05-23T19:08:33.608Z,100992.59
2023-05-23T19:11:00.988Z,101003.56
2023-05-23T19:13:59.821Z,101005.31
2023-05-23T19:19:37.920Z,101020.88
2023-05-23T19:22:05.289Z,101025.91
2023-05-23T19:24:43.021Z,101027.03
2023-05-23T19:27:17.439Z,101030.31
2023-05-23T19:29:53.343Z,101036.94
2023-05-23T19:32:20.938Z,101031.44
2023-05-23T19:34:47.902Z,101043.53
2023-05-23T19:37:15.242Z,101039.34
2023-05-23T19:39:45.817Z,101038.47
2023-05-23T19:42:13.457Z,101042.44
2023-05-23T19:44:42.284Z,101037.34
2023-05-23T19:47:09.198Z,101036.91
2023-05-23T19:49:36.663Z,101045.41
2023-05-23T19:52:03.701Z,101054.69
2023-05-23T19:54:30.717Z,101052.00
2023-05-23T19:56:57.610Z,101058.59
2023-05-23T19:59:24.552Z,101067.00
2023-05-23T20:01:51.524Z,101071.66
2023-05-23T20:04:18.448Z,101077.13
2023-05-23T20:06:45.291Z,101082.06
2023-05-23T20:09:13.071Z,101070.28
2023-05-23T20:11:39.942Z,101071.78
2023-05-23T20:14:06.958Z,101080.75
2023-05-23T20:16:34.096Z,101082.41
2023-05-23T20:19:01.374Z,101082.47
2023-05-23T20:21:30.648Z,101081.44
2023-05-23T20:23:57.966Z,101092.28
2023-05-23T20:26:29.010Z,101087.44
2023-05-23T20:28:59.907Z,101098.53
2023-05-23T20:31:26.990Z,101097.16
2023-05-23T20:33:54.188Z,101093.13
2023-05-23T20:36:21.233Z,101096.41
2023-05-23T20:38:48.483Z,101095.63
2023-05-23T20:41:16.511Z,101099.22
2023-05-23T20:43:44.957Z,101090.84
2023-05-23T20:46:13.986Z,101097.91
2023-05-23T20:48:44.013Z,101101.75
2023-05-23T20:51:12.026Z,101096.38
2023-05-23T20:53:40.981Z,101102.09
2023-05-23T20:56:10.546Z,101102.41
2023-05-23T20:58:38.619Z,101102.94
2023-05-23T21:01:18.017Z,101093.25
2023-05-23T21:03:50.719Z,101106.25
2023-05-23T21:06:18.459Z,101103.53
2023-05-23T21:08:45.513Z,101102.75
2023-05-23T21:11:14.267Z,101108.97
2023-05-23T21:13:47.521Z,101113.84
2023-05-23T21:16:23.054Z,101116.59
2023-05-23T21:18:53.162Z,101106.88
2023-05-23T21:21:20.578Z,101112.28
2023-05-23T21:23:47.492Z,101116.06
2023-05-23T21:26:14.604Z,101120.66
2023-05-23T21:28:43.016Z,101117.19
2023-05-23T21:31:10.451Z,101124.75
2023-05-23T21:33:37.329Z,101126.09
2023-05-23T21:36:04.195Z,101126.41
2023-05-23T21:38:31.242Z,101121.78
2023-05-23T21:40:58.175Z,101130.72
2023-05-23T21:43:25.161Z,101131.28
2023-05-23T21:45:52.868Z,101137.75
2023-05-23T21:48:19.766Z,101139.38
2023-05-23T21:50:46.644Z,101137.22
2023-05-23T21:53:13.489Z,101137.75
2023-05-23T21:55:40.509Z,101144.25
2023-05-23T21:58:07.480Z,101148.00
2023-05-23T22:00:34.209Z,101150.75
2023-05-23T22:03:01.269Z,101152.34
2023-05-23T22:05:28.278Z,101154.78
2023-05-23T22:07:55.139Z,101149.13
2023-05-23T22:10:22.020Z,101145.06
2023-05-23T22:12:48.962Z,101158.03
2023-05-23T22:15:16.132Z,101155.88
2023-05-23T22:17:43.359Z,101156.16
2023-05-23T22:20:13.242Z,101159.41
2023-05-23T22:22:40.824Z,101156.16
2023-05-23T22:25:11.412Z,101158.84
2023-05-23T22:27:38.662Z,101157.75
2023-05-23T22:30:06.679Z,101162.63
2023-05-23T22:32:38.703Z,101165.59
2023-05-23T22:35:06.316Z,101163.16
2023-05-23T22:37:33.544Z,101165.31
2023-05-23T22:40:00.828Z,101169.63
2023-05-23T22:42:27.871Z,101174.22
2023-05-23T22:44:57.989Z,101168.00
2023-05-23T22:47:25.374Z,101173.16
2023-05-23T22:49:56.649Z,101162.63
2023-05-23T22:52:23.968Z,101168.00
2023-05-23T22:54:51.603Z,101165.59
2023-05-23T22:57:24.239Z,101173.97
2023-05-23T22:59:51.154Z,101173.97
2023-05-23T23:02:20.528Z,101176.41
2023-05-23T23:04:51.780Z,101179.38
2023-05-23T23:07:18.931Z,101184.22
2023-05-23T23:09:46.488Z,101186.38
2023-05-23T23:12:13.720Z,101182.88
2023-05-23T23:14:40.687Z,101177.50
2023-05-23T23:17:07.785Z,101190.41
2023-05-23T23:19:35.728Z,101193.38
2023-05-23T23:22:03.548Z,101188.00
2023-05-23T23:24:30.882Z,101193.66
2023-05-23T23:26:57.716Z,101194.47
2023-05-23T23:29:24.696Z,101188.50
2023-05-23T23:31:51.748Z,101196.03
2023-05-23T23:34:18.812Z,101201.16
2023-05-23T23:36:45.882Z,101200.84
2023-05-23T23:39:12.857Z,101195.47
2023-05-23T23:41:39.922Z,101191.69
2023-05-23T23:44:07.396Z,101198.94
2023-05-23T23:46:36.986Z,101199.44
2023-05-23T23:49:04.295Z,101194.31
2023-05-23T23:51:33.851Z,101192.94
2023-05-23T23:54:00.806Z,101187.81
2023-05-23T23:56:27.657Z,101178.03
2023-05-23T23:58:54.471Z,101172.09
